createdAt,value
2018-09-21T00:00:44.036Z,98088.72
2018-09-21T00:03:12.706Z,98089.16
2018-09-21T00:05:41.082Z,98090.76
2018-09-21T00:08:09.435Z,98086.19
2018-09-21T00:10:37.765Z,98076.59
2018-09-21T00:13:06.163Z,98078.87
2018-09-21T00:15:34.671Z,98076.08
2018-09-21T00:18:02.935Z,98074.78
2018-09-21T00:20:31.283Z,98077.02
2018-09-21T00:22:59.578Z,98069.16
2018-09-21T00:25:27.935Z,98065.92
2018-09-21T00:27:56.288Z,98075.11
2018-09-21T00:30:24.697Z,98064.63
2018-09-21T00:32:52.968Z,98063.47
2018-09-21T00:35:21.414Z,98069.25
2018-09-21T00:37:49.789Z,98067.82
2018-09-21T00:40:18.120Z,98065.59
2018-09-21T00:42:46.485Z,98066.20
2018-09-21T00:45:14.836Z,98062.08
2018-09-21T00:47:43.120Z,98065.80
2018-09-21T00:50:11.452Z,98060.44
2018-09-21T00:52:39.839Z,98050.55
2018-09-21T00:55:08.256Z,98057.63
2018-09-21T00:57:36.601Z,98049.94
2018-09-21T01:00:05.496Z,98051.63
2018-09-21T01:02:33.955Z,98046.88
2018-09-21T01:05:02.332Z,98050.23
2018-09-21T01:07:30.810Z,98039.59
2018-09-21T01:09:59.110Z,98046.83
2018-09-21T01:12:27.484Z,98043.75
2018-09-21T01:14:55.806Z,98038.52
2018-09-21T01:17:24.512Z,98037.39
2018-09-21T01:19:52.882Z,98032.05
2018-09-21T01:22:21.235Z,98029.86
2018-09-21T01:24:49.717Z,98025.44
2018-09-21T01:27:18.053Z,98018.48
2018-09-21T01:29:46.347Z,98014.52
2018-09-21T01:32:14.797Z,98012.26
2018-09-21T01:34:43.132Z,98013.20
2018-09-21T01:37:11.448Z,98008.34
2018-09-21T01:39:39.821Z,98018.36
2018-09-21T01:42:08.123Z,98014.58
2018-09-21T01:44:36.443Z,98018.55
2018-09-21T01:47:04.990Z,98014.12
2018-09-21T01:49:33.620Z,98010.63
2018-09-21T01:52:02.730Z,98014.52
2018-09-21T01:54:31.116Z,98008.84
2018-09-21T01:56:59.441Z,98005.91
2018-09-21T01:59:27.779Z,98005.48
2018-09-21T02:01:56.110Z,98005.88
2018-09-21T02:04:29.453Z,98005.34
2018-09-21T02:06:57.855Z,97998.83
2018-09-21T02:09:26.274Z,98003.52
2018-09-21T02:11:54.582Z,97999.28
2018-09-21T02:14:23.052Z,97999.44
2018-09-21T02:16:51.652Z,97995.44
2018-09-21T02:19:20.283Z,98000.16
2018-09-21T02:21:48.681Z,97997.88
2018-09-21T02:24:17.405Z,97995.44
2018-09-21T02:26:45.707Z,97994.98
2018-09-21T02:29:14.035Z,97992.25
2018-09-21T02:31:42.397Z,97991.68
2018-09-21T02:34:10.799Z,97995.75
2018-09-21T02:36:39.218Z,97986.20
2018-09-21T02:39:08.586Z,97991.04
2018-09-21T02:41:37.262Z,97980.15
2018-09-21T02:44:05.967Z,97982.69
2018-09-21T02:46:34.729Z,97978.32
2018-09-21T02:49:03.325Z,97980.00
2018-09-21T02:51:33.027Z,97983.16
2018-09-21T02:54:01.310Z,97974.70
2018-09-21T02:56:29.729Z,97975.14
2018-09-21T02:58:58.069Z,97974.58
2018-09-21T03:01:26.566Z,97973.41
2018-09-21T03:03:54.883Z,97969.28
2018-09-21T03:06:23.260Z,97962.92
2018-09-21T03:08:51.679Z,97968.19
2018-09-21T03:11:19.968Z,97960.94
2018-09-21T03:13:48.361Z,97963.69
2018-09-21T03:16:16.671Z,97970.09
2018-09-21T03:18:44.956Z,97963.05
2018-09-21T03:21:13.312Z,97965.95
2018-09-21T03:23:41.667Z,97959.52
2018-09-21T03:26:09.927Z,97957.62
2018-09-21T03:28:38.371Z,97951.59
2018-09-21T03:31:07.219Z,97958.59
2018-09-21T03:33:35.667Z,97961.02
2018-09-21T03:36:04.021Z,97953.52
2018-09-21T03:38:33.818Z,97955.50
2018-09-21T03:41:02.128Z,97949.41
2018-09-21T03:43:30.504Z,97945.64
2018-09-21T03:45:58.824Z,97949.92
2018-09-21T03:48:28.005Z,97951.23
2018-09-21T03:50:56.351Z,97947.02
2018-09-21T03:53:24.683Z,97943.89
2018-09-21T03:55:53.753Z,97941.30
2018-09-21T03:58:22.135Z,97939.52
2018-09-21T04:00:50.467Z,97939.12
2018-09-21T04:03:18.807Z,97932.77
2018-09-21T04:05:47.165Z,97931.69
2018-09-21T04:08:15.568Z,97935.20
2018-09-21T04:10:43.949Z,97933.56
2018-09-21T04:13:12.263Z,97934.20
2018-09-21T04:15:40.600Z,97932.45
2018-09-21T04:18:08.961Z,97927.65
2018-09-21T04:20:37.272Z,97923.48
2018-09-21T04:23:05.601Z,97918.22
2018-09-21T04:25:33.836Z,97920.45
2018-09-21T04:28:02.149Z,97915.64
2018-09-21T04:30:30.492Z,97912.67
2018-09-21T04:32:59.361Z,97911.84
2018-09-21T04:35:27.834Z,97911.97
2018-09-21T04:37:56.200Z,97903.69
2018-09-21T04:40:24.741Z,97903.60
2018-09-21T04:42:53.597Z,97900.13
2018-09-21T04:45:22.190Z,97904.69
2018-09-21T04:47:50.506Z,97903.72
2018-09-21T04:50:18.837Z,97902.11
2018-09-21T04:52:47.167Z,97900.69
2018-09-21T04:55:15.606Z,97898.95
2018-09-21T04:57:43.954Z,97895.03
2018-09-21T05:00:12.352Z,97895.78
2018-09-21T05:02:40.734Z,97888.18
2018-09-21T05:05:09.127Z,97889.66
2018-09-21T05:07:37.593Z,97890.21
2018-09-21T05:10:06.116Z,97888.20
2018-09-21T05:12:34.469Z,97879.20
2018-09-21T05:15:02.767Z,97872.88
2018-09-21T05:17:31.535Z,97877.08
2018-09-21T05:20:00.603Z,97875.68
2018-09-21T05:22:29.489Z,97878.01
2018-09-21T05:24:57.979Z,97872.88
2018-09-21T05:27:26.408Z,97879.49
2018-09-21T05:29:54.796Z,97878.81
2018-09-21T05:32:23.790Z,97873.25
2018-09-21T05:34:52.188Z,97875.70
2018-09-21T05:37:20.896Z,97871.65
2018-09-21T05:39:49.216Z,97872.98
2018-09-21T05:42:17.515Z,97869.13
2018-09-21T05:44:45.834Z,97868.33
2018-09-21T05:47:14.361Z,97871.20
2018-09-21T05:49:42.924Z,97871.81
2018-09-21T05:52:11.732Z,97872.66
2018-09-21T05:54:40.040Z,97877.00
2018-09-21T05:57:08.352Z,97878.69
2018-09-21T05:59:36.692Z,97876.33
2018-09-21T06:02:05.090Z,97870.82
2018-09-21T06:04:33.500Z,97870.92
2018-09-21T06:07:01.768Z,97869.66
2018-09-21T06:09:30.099Z,97880.03
2018-09-21T06:11:58.557Z,97872.05
2018-09-21T06:14:26.999Z,97867.64
2018-09-21T06:16:55.398Z,97861.00
2018-09-21T06:19:23.700Z,97859.84
2018-09-21T06:21:52.289Z,97858.63
2018-09-21T06:24:21.615Z,97862.95
2018-09-21T06:26:50.250Z,97869.66
2018-09-21T06:29:19.099Z,97877.33
2018-09-21T06:31:47.395Z,97878.81
2018-09-21T06:34:15.731Z,97874.96
2018-09-21T06:36:44.068Z,97876.34
2018-09-21T06:39:12.673Z,97874.50
2018-09-21T06:41:41.172Z,97872.58
2018-09-21T06:44:10.901Z,97872.80
2018-09-21T06:46:39.281Z,97870.81
2018-09-21T06:49:07.630Z,97863.40
2018-09-21T06:51:35.949Z,97856.75
2018-09-21T06:54:04.261Z,97855.00
2018-09-21T06:56:32.619Z,97857.18
2018-09-21T06:59:00.904Z,97857.02
2018-09-21T07:01:29.338Z,97855.57
2018-09-21T07:03:57.645Z,97858.64
2018-09-21T07:06:25.925Z,97856.56
2018-09-21T07:08:54.270Z,97849.73
2018-09-21T07:11:22.598Z,97848.77
2018-09-21T07:13:50.979Z,97843.06
2018-09-21T07:16:19.317Z,97843.00
2018-09-21T07:18:47.581Z,97835.80
2018-09-21T07:21:15.912Z,97840.64
2018-09-21T07:23:44.254Z,97833.34
2018-09-21T07:26:12.577Z,97826.45
2018-09-21T07:28:40.896Z,97821.87
2018-09-21T07:31:09.294Z,97820.94
2018-09-21T07:33:37.655Z,97818.50
2018-09-21T07:36:06.020Z,97819.30
2018-09-21T07:38:34.526Z,97824.20
2018-09-21T07:41:02.953Z,97822.00
2018-09-21T07:43:31.408Z,97818.84
2018-09-21T07:45:59.721Z,97808.91
2018-09-21T07:48:28.027Z,97818.20
2018-09-21T07:50:56.468Z,97819.16
2018-09-21T07:53:24.794Z,97823.36
2018-09-21T07:55:53.182Z,97824.58
2018-09-21T07:58:21.692Z,97838.72
2018-09-21T08:00:50.057Z,97828.20
2018-09-21T08:03:18.482Z,97827.80
2018-09-21T08:05:46.831Z,97827.75
2018-09-21T08:08:15.217Z,97828.42
2018-09-21T08:10:43.516Z,97823.25
2018-09-21T08:13:11.808Z,97832.32
2018-09-21T08:15:40.084Z,97837.05
2018-09-21T08:18:08.371Z,97830.58
2018-09-21T08:20:36.650Z,97835.11
2018-09-21T08:23:04.990Z,97837.77
2018-09-21T08:25:33.267Z,97842.30
2018-09-21T08:28:01.643Z,97856.25
2018-09-21T08:30:29.965Z,97847.52
2018-09-21T08:32:58.229Z,97850.57
2018-09-21T08:35:26.470Z,97846.61
2018-09-21T08:37:54.826Z,97851.19
2018-09-21T08:40:23.310Z,97854.41
2018-09-21T08:42:51.559Z,97846.13
2018-09-21T08:45:19.857Z,97849.88
2018-09-21T08:47:48.098Z,97846.21
2018-09-21T08:50:16.345Z,97848.23
2018-09-21T08:52:44.640Z,97846.77
2018-09-21T08:55:12.969Z,97841.77
2018-09-21T08:57:41.257Z,97847.45
2018-09-21T09:00:09.524Z,97847.92
2018-09-21T09:02:37.822Z,97848.92
2018-09-21T09:05:06.397Z,97847.11
2018-09-21T09:07:34.743Z,97847.13
2018-09-21T09:10:03.062Z,97848.88
2018-09-21T09:12:31.320Z,97852.72
2018-09-21T09:14:59.587Z,97836.66
2018-09-21T09:17:27.953Z,97827.58
2018-09-21T09:19:56.235Z,97825.27
2018-09-21T09:22:24.493Z,97839.88
2018-09-21T09:24:53.024Z,97843.83
2018-09-21T09:27:21.378Z,97827.78
2018-09-21T09:29:49.666Z,97834.64
2018-09-21T09:32:17.946Z,97827.25
2018-09-21T09:34:46.289Z,97811.44
2018-09-21T09:37:14.596Z,97818.80
2018-09-21T09:39:43.028Z,97815.99
2018-09-21T09:42:11.291Z,97796.60
2018-09-21T09:44:39.592Z,97797.86
2018-09-21T09:47:07.864Z,97791.82
2018-09-21T09:49:36.303Z,97804.00
2018-09-21T09:52:04.745Z,97798.22
2018-09-21T09:54:33.160Z,97801.14
2018-09-21T09:57:01.460Z,97798.13
2018-09-21T09:59:29.783Z,97802.68
2018-09-21T10:01:58.056Z,97796.96
2018-09-21T10:04:26.384Z,97798.16
2018-09-21T10:06:54.637Z,97822.14
2018-09-21T10:09:22.903Z,97787.52
2018-09-21T10:11:51.209Z,97793.58
2018-09-21T10:14:19.469Z,97793.19
2018-09-21T10:16:47.747Z,97779.36
2018-09-21T10:19:16.016Z,97779.28
2018-09-21T10:21:44.487Z,97780.27
2018-09-21T10:24:12.823Z,97774.74
2018-09-21T10:26:41.392Z,97775.80
2018-09-21T10:29:09.677Z,97774.25
2018-09-21T10:31:37.988Z,97777.64
2018-09-21T10:34:06.392Z,97785.34
2018-09-21T10:36:34.900Z,97773.05
2018-09-21T10:39:03.286Z,97771.61
2018-09-21T10:41:31.540Z,97783.52
2018-09-21T10:43:59.867Z,97766.50
2018-09-21T10:46:28.196Z,97781.30
2018-09-21T10:48:56.536Z,97774.61
2018-09-21T10:51:24.910Z,97764.19
2018-09-21T10:53:53.202Z,97768.77
2018-09-21T10:56:21.481Z,97766.02
2018-09-21T10:58:49.838Z,97762.45
2018-09-21T11:01:18.120Z,97752.31
2018-09-21T11:03:46.872Z,97742.32
2018-09-21T11:06:15.284Z,97732.42
2018-09-21T11:08:43.657Z,97730.00
2018-09-21T11:11:11.966Z,97727.55
2018-09-21T11:13:40.456Z,97714.98
2018-09-21T11:16:08.814Z,97724.27
2018-09-21T11:18:37.039Z,97724.98
2018-09-21T11:21:05.326Z,97725.05
2018-09-21T11:23:34.346Z,97726.19
2018-09-21T11:26:02.738Z,97726.37
2018-09-21T11:28:31.022Z,97739.42
2018-09-21T11:30:59.333Z,97738.45
2018-09-21T11:33:27.616Z,97747.21
2018-09-21T11:35:56.195Z,97754.41
2018-09-21T11:38:24.722Z,97746.95
2018-09-21T11:40:53.059Z,97744.52
2018-09-21T11:43:21.511Z,97729.22
2018-09-21T11:45:50.271Z,97764.16
2018-09-21T11:48:18.797Z,97723.59
2018-09-21T11:50:47.468Z,97739.36
2018-09-21T11:53:16.167Z,97736.38
2018-09-21T11:55:44.501Z,97737.33
2018-09-21T11:58:13.384Z,97734.52
2018-09-21T12:00:41.655Z,97728.56
2018-09-21T12:03:10.089Z,97722.66
2018-09-21T12:05:38.418Z,97726.27
2018-09-21T12:08:06.698Z,97744.78
2018-09-21T12:10:35.830Z,97745.34
2018-09-21T12:13:04.226Z,97740.78
2018-09-21T12:15:32.459Z,97729.94
2018-09-21T12:18:00.864Z,97744.83
2018-09-21T12:20:29.182Z,97762.15
2018-09-21T12:22:57.588Z,97756.08
2018-09-21T12:25:25.824Z,97758.47
2018-09-21T12:27:54.370Z,97755.05
2018-09-21T12:30:22.836Z,97758.08
2018-09-21T12:32:51.095Z,97759.45
2018-09-21T12:35:19.554Z,97745.61
2018-09-21T12:37:47.868Z,97740.05
2018-09-21T12:40:20.020Z,97743.48
2018-09-21T12:42:48.269Z,97742.24
2018-09-21T12:45:16.745Z,97735.66
2018-09-21T12:47:45.007Z,97731.06
2018-09-21T12:50:13.408Z,97740.78
2018-09-21T12:52:41.688Z,97730.31
2018-09-21T12:55:10.038Z,97730.34
2018-09-21T12:57:38.557Z,97735.56
2018-09-21T13:00:08.428Z,97743.19
2018-09-21T13:02:37.254Z,97729.48
2018-09-21T13:05:05.656Z,97726.87
2018-09-21T13:07:34.006Z,97729.93
2018-09-21T13:10:02.296Z,97722.94
2018-09-21T13:12:30.677Z,97716.69
2018-09-21T13:14:58.946Z,97711.17
2018-09-21T13:17:27.546Z,97719.22
2018-09-21T13:19:55.864Z,97722.54
2018-09-21T13:22:24.322Z,97717.27
2018-09-21T13:24:52.644Z,97718.88
2018-09-21T13:27:20.897Z,97718.36
2018-09-21T13:29:49.167Z,97710.33
2018-09-21T13:32:17.648Z,97721.03
2018-09-21T13:34:45.972Z,97715.55
2018-09-21T13:37:14.263Z,97724.30
2018-09-21T13:39:42.601Z,97702.93
2018-09-21T13:42:10.985Z,97701.31
2018-09-21T13:44:39.327Z,97722.97
2018-09-21T13:47:07.645Z,97712.98
2018-09-21T13:49:35.898Z,97699.47
2018-09-21T13:52:04.353Z,97706.63
2018-09-21T13:54:32.598Z,97708.88
2018-09-21T13:57:00.941Z,97705.70
2018-09-21T13:59:29.395Z,97695.22
2018-09-21T14:01:57.760Z,97694.59
2018-09-21T14:04:26.088Z,97702.80
2018-09-21T14:06:54.427Z,97694.11
2018-09-21T14:09:23.107Z,97691.42
2018-09-21T14:11:51.550Z,97669.70
2018-09-21T14:14:20.311Z,97660.02
2018-09-21T14:16:48.626Z,97678.38
2018-09-21T14:19:16.981Z,97666.32
2018-09-21T14:21:45.308Z,97672.55
2018-09-21T14:24:14.478Z,97669.21
2018-09-21T14:26:42.815Z,97674.78
2018-09-21T14:29:11.246Z,97681.48
2018-09-21T14:31:39.528Z,97678.81
2018-09-21T14:34:08.086Z,97697.13
2018-09-21T14:36:36.382Z,97697.80
2018-09-21T14:39:06.786Z,97713.48
2018-09-21T14:41:35.115Z,97708.25
2018-09-21T14:44:03.851Z,97716.64
2018-09-21T14:46:32.196Z,97730.46
2018-09-21T14:49:00.490Z,97719.02
2018-09-21T14:51:29.056Z,97729.36
2018-09-21T14:53:57.365Z,97730.29
2018-09-21T14:56:25.712Z,97739.87
2018-09-21T14:58:54.036Z,97749.30
2018-09-21T15:01:22.491Z,97748.41
2018-09-21T15:03:50.792Z,97767.22
2018-09-21T15:06:19.407Z,97748.77
2018-09-21T15:08:47.811Z,97743.34
2018-09-21T15:11:16.195Z,97751.19
2018-09-21T15:13:44.499Z,97757.18
2018-09-21T15:16:12.853Z,97758.17
2018-09-21T15:18:41.238Z,97776.50
2018-09-21T15:21:09.504Z,97776.66
2018-09-21T15:23:37.826Z,97784.95
2018-09-21T15:26:06.240Z,97783.06
2018-09-21T15:28:34.624Z,97795.14
2018-09-21T15:31:02.904Z,97813.38
2018-09-21T15:33:31.177Z,97831.43
2018-09-21T15:35:59.675Z,97861.88
2018-09-21T15:38:28.065Z,97875.94
2018-09-21T15:40:56.364Z,97894.64
2018-09-21T15:43:24.959Z,97908.62
2018-09-21T15:45:53.265Z,97955.06
2018-09-21T15:48:21.579Z,97960.73
2018-09-21T15:50:50.136Z,97981.76
2018-09-21T15:53:18.499Z,98034.41
2018-09-21T15:55:46.829Z,98048.19
2018-09-21T15:58:15.298Z,98041.42
2018-09-21T16:00:43.590Z,98074.45
2018-09-21T16:03:11.848Z,98110.87
2018-09-21T16:05:40.207Z,98121.98
2018-09-21T16:08:08.556Z,98134.17
2018-09-21T16:10:36.959Z,98126.11
2018-09-21T16:13:05.237Z,98136.85
2018-09-21T16:15:33.534Z,98150.18
2018-09-21T16:18:02.016Z,98150.80
2018-09-21T16:20:30.289Z,98150.28
2018-09-21T16:22:58.638Z,98159.47
2018-09-21T16:25:27.229Z,98165.80
2018-09-21T16:27:55.553Z,98161.59
2018-09-21T16:30:23.948Z,98166.50
2018-09-21T16:32:52.426Z,98156.00
2018-09-21T16:35:20.808Z,98160.47
2018-09-21T16:37:49.287Z,98211.59
2018-09-21T16:40:20.040Z,98214.49
2018-09-21T16:42:48.312Z,98213.11
2018-09-21T16:45:16.637Z,98214.08
2018-09-21T16:47:44.992Z,98211.34
2018-09-21T16:50:13.421Z,98209.59
2018-09-21T16:52:41.823Z,98215.34
2018-09-21T16:55:10.117Z,98213.50
2018-09-21T16:57:38.436Z,98232.85
2018-09-21T17:00:07.923Z,98247.66
2018-09-21T17:02:36.252Z,98236.83
2018-09-21T17:05:04.588Z,98259.39
2018-09-21T17:07:33.040Z,98265.08
2018-09-21T17:10:01.470Z,98263.87
2018-09-21T17:12:29.911Z,98270.77
2018-09-21T17:14:59.170Z,98288.09
2018-09-21T17:17:27.505Z,98288.57
2018-09-21T17:19:55.859Z,98296.91
2018-09-21T17:22:24.493Z,98301.69
2018-09-21T17:24:52.836Z,98307.47
2018-09-21T17:27:21.226Z,98314.56
2018-09-21T17:29:49.830Z,98312.10
2018-09-21T17:32:18.338Z,98329.64
2018-09-21T17:34:46.600Z,98331.98
2018-09-21T17:37:14.943Z,98336.22
2018-09-21T17:39:43.226Z,98334.91
2018-09-21T17:42:11.574Z,98342.51
2018-09-21T17:44:39.986Z,98349.83
2018-09-21T17:47:08.551Z,98347.95
2018-09-21T17:49:36.856Z,98356.10
2018-09-21T17:52:05.347Z,98366.91
2018-09-21T17:54:33.776Z,98362.41
2018-09-21T17:57:02.051Z,98370.78
2018-09-21T17:59:30.397Z,98387.90
2018-09-21T18:01:58.702Z,98402.29
2018-09-21T18:04:27.106Z,98412.08
2018-09-21T18:06:55.742Z,98419.62
2018-09-21T18:09:24.089Z,98428.41
2018-09-21T18:11:52.565Z,98431.58
2018-09-21T18:14:21.111Z,98439.37
2018-09-21T18:16:49.421Z,98450.95
2018-09-21T18:19:17.801Z,98450.47
2018-09-21T18:21:46.088Z,98454.01
2018-09-21T18:24:14.452Z,98456.55
2018-09-21T18:26:42.790Z,98463.52
2018-09-21T18:29:11.901Z,98475.49
2018-09-21T18:31:40.205Z,98476.36
2018-09-21T18:34:08.536Z,98478.14
2018-09-21T18:36:36.887Z,98478.00
2018-09-21T18:39:06.736Z,98489.12
2018-09-21T18:41:35.085Z,98495.67
2018-09-21T18:44:03.959Z,98488.00
2018-09-21T18:46:32.374Z,98486.38
2018-09-21T18:49:00.978Z,98502.88
2018-09-21T18:51:29.279Z,98496.97
2018-09-21T18:53:57.631Z,98509.55
2018-09-21T18:56:25.927Z,98496.93
2018-09-21T18:58:54.296Z,98506.61
2018-09-21T19:01:22.782Z,98512.55
2018-09-21T19:03:51.232Z,98501.62
2018-09-21T19:06:19.594Z,98501.97
2018-09-21T19:08:48.074Z,98507.14
2018-09-21T19:11:17.007Z,98510.77
2018-09-21T19:13:45.376Z,98504.72
2018-09-21T19:16:13.702Z,98507.65
2018-09-21T19:18:42.048Z,98523.65
2018-09-21T19:21:10.368Z,98522.48
2018-09-21T19:23:38.681Z,98530.90
2018-09-21T19:26:07.266Z,98530.66
2018-09-21T19:28:35.698Z,98539.80
2018-09-21T19:31:04.083Z,98535.80
2018-09-21T19:33:32.450Z,98545.23
2018-09-21T19:36:00.838Z,98542.77
2018-09-21T19:38:29.197Z,98552.27
2018-09-21T19:40:57.506Z,98544.94
2018-09-21T19:43:25.876Z,98555.20
2018-09-21T19:45:54.280Z,98559.56
2018-09-21T19:48:22.727Z,98560.72
2018-09-21T19:50:51.024Z,98568.68
2018-09-21T19:53:19.347Z,98569.11
2018-09-21T19:55:47.611Z,98556.32
2018-09-21T19:58:16.106Z,98566.64
2018-09-21T20:00:44.460Z,98566.98
2018-09-21T20:03:12.800Z,98554.97
2018-09-21T20:05:41.203Z,98555.94
2018-09-21T20:08:09.481Z,98560.55
2018-09-21T20:10:37.836Z,98568.17
2018-09-21T20:13:06.317Z,98581.14
2018-09-21T20:15:34.704Z,98591.43
2018-09-21T20:18:03.095Z,98585.50
2018-09-21T20:20:31.409Z,98606.23
2018-09-21T20:22:59.842Z,98594.31
2018-09-21T20:25:28.316Z,98595.28
2018-09-21T20:27:56.632Z,98596.34
2018-09-21T20:30:30.323Z,98608.00
2018-09-21T20:33:04.046Z,98621.08
2018-09-21T20:35:32.453Z,98614.33
2018-09-21T20:38:00.799Z,98614.25
2018-09-21T20:40:29.464Z,98621.47
2018-09-21T20:42:57.797Z,98636.16
2018-09-21T20:45:26.485Z,98619.41
2018-09-21T20:47:54.847Z,98617.39
2018-09-21T20:50:23.463Z,98609.03
2018-09-21T20:52:51.886Z,98614.72
2018-09-21T20:55:20.737Z,98626.38
2018-09-21T20:57:49.152Z,98623.11
2018-09-21T21:00:17.432Z,98636.27
2018-09-21T21:02:45.934Z,98646.45
2018-09-21T21:05:14.265Z,98647.18
2018-09-21T21:07:42.648Z,98643.84
2018-09-21T21:10:10.952Z,98652.08
2018-09-21T21:12:39.220Z,98663.18
2018-09-21T21:15:08.692Z,98657.13
2018-09-21T21:17:37.371Z,98658.98
2018-09-21T21:20:05.997Z,98661.23
2018-09-21T21:22:34.465Z,98659.77
2018-09-21T21:25:03.488Z,98659.58
2018-09-21T21:27:31.975Z,98665.08
2018-09-21T21:30:00.346Z,98674.48
2018-09-21T21:32:28.701Z,98672.31
2018-09-21T21:34:57.056Z,98693.59
2018-09-21T21:37:25.672Z,98688.82
2018-09-21T21:39:54.191Z,98693.72
2018-09-21T21:42:22.644Z,98686.70
2018-09-21T21:44:51.104Z,98691.40
2018-09-21T21:47:26.124Z,98695.00
2018-09-21T21:49:54.414Z,98707.47
2018-09-21T21:52:22.756Z,98700.22
2018-09-21T21:54:51.031Z,98689.17
2018-09-21T21:57:19.441Z,98705.13
2018-09-21T21:59:47.828Z,98711.45
2018-09-21T22:02:16.178Z,98719.41
2018-09-21T22:04:45.178Z,98720.92
2018-09-21T22:07:13.689Z,98718.70
2018-09-21T22:09:42.162Z,98720.34
2018-09-21T22:12:16.101Z,98713.62
2018-09-21T22:14:44.462Z,98717.38
2018-09-21T22:17:13.537Z,98738.25
2018-09-21T22:19:42.075Z,98738.23
2018-09-21T22:22:10.410Z,98737.61
2018-09-21T22:24:38.674Z,98750.20
2018-09-21T22:27:07.073Z,98740.25
2018-09-21T22:29:35.552Z,98739.77
2018-09-21T22:32:03.889Z,98750.97
2018-09-21T22:34:32.196Z,98738.86
2018-09-21T22:37:00.550Z,98749.16
2018-09-21T22:39:28.935Z,98750.64
2018-09-21T22:41:57.281Z,98746.52
2018-09-21T22:44:25.563Z,98758.85
2018-09-21T22:46:55.527Z,98757.25
2018-09-21T22:49:24.928Z,98763.88
2018-09-21T22:51:53.301Z,98772.28
2018-09-21T22:54:21.836Z,98768.30
2018-09-21T22:56:50.361Z,98775.89
2018-09-21T22:59:19.354Z,98784.05
2018-09-21T23:01:49.208Z,98786.38
2018-09-21T23:04:17.749Z,98782.86
2018-09-21T23:06:46.373Z,98794.92
2018-09-21T23:09:14.895Z,98793.05
2018-09-21T23:11:44.026Z,98799.97
2018-09-21T23:14:12.515Z,98809.32
2018-09-21T23:16:41.194Z,98809.54
2018-09-21T23:19:09.825Z,98811.39
2018-09-21T23:21:38.595Z,98808.26
2018-09-21T23:24:07.217Z,98820.94
2018-09-21T23:26:35.572Z,98814.28
2018-09-21T23:29:04.492Z,98812.41
2018-09-21T23:31:33.506Z,98817.92
2018-09-21T23:34:02.135Z,98820.08
2018-09-21T23:36:30.655Z,98819.84
2018-09-21T23:38:59.079Z,98814.38
2018-09-21T23:41:27.671Z,98830.95
2018-09-21T23:43:55.938Z,98825.33
2018-09-21T23:46:24.269Z,98826.34
2018-09-21T23:48:52.584Z,98824.48
2018-09-21T23:51:20.955Z,98816.86
2018-09-21T23:53:49.195Z,98820.55
2018-09-21T23:56:17.565Z,98818.34
2018-09-21T23:58:45.878Z,98825.07
